Time;durP1;ratioP1;P1;durP2;ratioP2;P2;SDS_P1;SDS_P2;PMS_P1;PMS_P2;Temp;Humidity;BMP_temperature;BMP_pressure;BME280_temperature;BME280_humidity;BME280_pressure;Samples;Min_cycle;Max_cycle;Signal;HPM_P1;HPM_P2
2022/06/24 00:03:45;;;;;;;5.18;2.30;;;;;;;15.62;100.00;99772.91;10101765;29;20056;-78
2022/06/24 00:08:56;;;;;;;5.88;2.38;;;;;;;15.57;100.00;99781.59;10102268;29;20065;-77
2022/06/24 00:14:10;;;;;;;2.60;1.73;;;;;;;15.54;100.00;99773.97;10102115;29;20060;-77
2022/06/24 00:19:11;;;;;;;8.07;1.93;;;;;;;15.50;100.00;99767.44;10102429;29;20076;-77
2022/06/24 00:24:21;;;;;;;4.90;1.83;;;;;;;15.29;100.00;99747.16;10101511;29;20048;-77
2022/06/24 00:29:26;;;;;;;13.30;2.60;;;;;;;15.21;100.00;99752.72;10101254;29;20130;-78
2022/06/24 00:34:26;;;;;;;;;;;;;;;15.44;100.00;99769.09;10091482;29;20585;-75
2022/06/24 00:39:34;;;;;;;8.88;2.88;;;;;;;15.29;100.00;99772.03;10100575;29;20038;-77
2022/06/24 00:44:44;;;;;;;5.38;2.20;;;;;;;15.28;100.00;99750.84;10100911;29;20048;-77
2022/06/24 00:49:47;;;;;;;12.70;3.25;;;;;;;15.17;100.00;99760.38;10100673;29;20084;-77
2022/06/24 00:54:48;;;;;;;22.08;3.60;;;;;;;14.19;100.00;99618.75;10100602;29;20037;-78
2022/06/24 00:59:50;;;;;;;5.63;2.35;;;;;;;14.79;100.00;99742.38;10100946;29;20052;-77
2022/06/24 01:04:51;;;;;;;10.05;2.55;;;;;;;14.29;100.00;99658.38;10100124;29;20139;-77
2022/06/24 01:09:52;;;;;;;4.72;2.10;;;;;;;15.01;100.00;99772.34;10098298;29;20127;-77
2022/06/24 01:14:52;;;;;;;17.23;3.42;;;;;;;14.28;100.00;99649.56;10099179;29;20041;-76
2022/06/24 01:19:53;;;;;;;12.05;3.20;;;;;;;14.92;100.00;99778.13;10100351;29;20060;-77
2022/06/24 01:24:54;;;;;;;18.92;3.53;;;;;;;14.81;100.00;99763.59;10098668;29;20052;-77
2022/06/24 01:29:55;;;;;;;4.80;2.28;;;;;;;13.91;100.00;99619.03;10129365;29;20119;-77
2022/06/24 01:34:56;;;;;;;20.33;3.92;;;;;;;14.89;100.00;99776.69;10097445;29;20132;-77
2022/06/24 01:39:57;;;;;;;23.02;3.45;;;;;;;14.15;100.00;99663.78;10099753;29;20045;-77
2022/06/24 01:44:57;;;;;;;37.88;4.25;;;;;;;14.79;100.00;99773.66;10098427;29;20075;-77
2022/06/24 01:49:58;;;;;;;10.82;3.22;;;;;;;14.71;100.00;99723.88;10098089;29;20494;-77
2022/06/24 01:54:59;;;;;;;9.50;3.08;;;;;;;15.00;100.00;99764.53;10097751;29;20053;-77
2022/06/24 02:00:00;;;;;;;12.75;3.25;;;;;;;14.87;100.00;99749.38;10098827;29;20052;-77
2022/06/24 02:05:01;;;;;;;10.90;2.50;;;;;;;13.55;100.00;99531.38;10097793;29;20445;-77
2022/06/24 02:15:21;;;;;;;9.85;3.53;;;;;;;14.89;100.00;99652.88;10096809;29;20049;-78
2022/06/24 02:20:22;;;;;;;18.85;3.47;;;;;;;15.92;100.00;99747.19;10096931;29;20054;-77
2022/06/24 02:25:23;;;;;;;7.25;2.90;;;;;;;16.70;100.00;99793.34;10096748;29;20097;-78
2022/06/24 02:30:23;;;;;;;7.13;2.33;;;;;;;15.97;100.00;99632.19;10096694;29;20065;-78
2022/06/24 02:35:24;;;;;;;17.48;3.20;;;;;;;16.34;100.00;99679.66;10095761;29;20049;-79
2022/06/24 02:45:46;;;;;;;12.13;2.75;;;;;;;16.85;100.00;99732.94;10096435;29;20049;-78
2022/06/24 02:50:55;;;;;;;9.75;2.58;;;;;;;17.06;100.00;99758.50;10096368;29;20144;-79
2022/06/24 02:56:05;;;;;;;5.32;2.55;;;;;;;17.06;100.00;99746.97;10096174;29;20081;-78
2022/06/24 03:01:07;;;;;;;7.32;2.45;;;;;;;17.19;100.00;99754.84;10096269;29;20524;-77
2022/06/24 03:06:08;;;;;;;5.70;2.47;;;;;;;17.29;100.00;99744.41;10095758;29;20069;-78
2022/06/24 03:11:09;;;;;;;6.60;2.17;;;;;;;16.89;100.00;99637.56;10095229;29;20052;-78
2022/06/24 03:16:10;;;;;;;4.35;1.55;;;;;;;18.76;100.00;99760.97;10095102;29;20059;-78
2022/06/24 03:21:12;;;;;;;4.40;1.95;;;;;;;19.68;97.88;99757.41;10094722;29;20057;-78
2022/06/24 03:26:13;;;;;;;4.85;1.65;;;;;;;19.95;91.01;99634.44;10095497;29;20105;-77
2022/06/24 03:31:14;;;;;;;4.22;1.83;;;;;;;20.63;89.77;99742.22;10094410;29;20089;-78
2022/06/24 03:36:14;;;;;;;7.65;1.80;;;;;;;20.86;87.75;99752.00;10093463;29;20467;-78
2022/06/24 03:41:15;;;;;;;5.10;1.48;;;;;;;21.77;81.90;99741.41;10095058;29;20101;-78
2022/06/24 03:46:16;;;;;;;5.93;1.73;;;;;;;22.36;77.78;99734.34;10094562;29;20079;-78
2022/06/24 03:51:17;;;;;;;2.47;1.50;;;;;;;22.22;77.90;99739.38;10094789;29;20120;-78
2022/06/24 03:56:17;;;;;;;6.22;2.00;;;;;;;22.18;78.88;99730.16;10090335;29;20056;-79
2022/06/24 04:01:18;;;;;;;3.60;1.85;;;;;;;23.10;75.63;99723.38;10092581;29;20606;-79
2022/06/24 04:06:20;;;;;;;4.38;1.80;;;;;;;23.63;73.17;99696.94;10081286;29;20065;-77
2022/06/24 04:11:21;;;;;;;4.50;2.72;;;;;;;23.90;71.18;99706.72;10087482;29;20052;-79
2022/06/24 04:16:22;;;;;;;4.90;2.65;;;;;;;23.66;69.42;99609.63;10089644;29;20056;-80
2022/06/24 04:21:23;;;;;;;5.80;1.67;;;;;;;24.47;67.33;99729.22;10093906;29;20049;-76
2022/06/24 04:26:24;;;;;;;4.70;1.60;;;;;;;24.45;66.47;99715.94;10094291;29;20647;-78
2022/06/24 04:31:24;;;;;;;5.30;2.17;;;;;;;23.63;68.18;99705.06;10090499;29;20131;-80
2022/06/24 04:36:25;;;;;;;4.22;1.55;;;;;;;22.97;69.96;99708.44;10090880;29;20060;-79
2022/06/24 04:41:26;;;;;;;3.78;1.80;;;;;;;22.54;71.65;99714.97;10091404;29;20041;-78
2022/06/24 04:46:27;;;;;;;3.83;1.90;;;;;;;22.01;72.61;99708.63;10099802;29;20147;-77
2022/06/24 04:51:28;;;;;;;3.83;2.05;;;;;;;21.20;73.93;99658.16;10100911;29;20557;-77
2022/06/24 04:56:29;;;;;;;3.22;2.30;;;;;;;21.23;76.16;99710.84;10098167;29;20093;-78
2022/06/24 05:01:30;;;;;;;5.63;2.40;;;;;;;20.50;75.70;99592.28;10097936;29;20151;-76
2022/06/24 05:06:31;;;;;;;12.98;2.55;;;;;;;21.19;76.51;99702.44;10098401;29;20532;-79
2022/06/24 05:11:31;;;;;;;4.95;2.70;;;;;;;20.68;76.56;99600.09;10095505;29;20056;-77
2022/06/24 05:16:32;;;;;;;8.23;4.50;;;;;;;21.27;76.79;99698.44;10093416;29;20045;-77
2022/06/24 05:21:33;;;;;;;5.18;4.43;;;;;;;21.16;77.43;99676.75;10095516;29;20045;-78
2022/06/24 05:26:34;;;;;;;4.35;2.50;;;;;;;20.81;76.47;99590.78;10095136;29;20053;-79
2022/06/24 05:31:35;;;;;;;5.50;2.47;;;;;;;21.16;74.66;99560.63;10093270;29;20041;-79
2022/06/24 05:36:36;;;;;;;7.00;2.80;;;;;;;22.49;73.38;99639.16;10097039;29;20139;-78
2022/06/24 05:41:39;;;;;;;3.50;2.30;;;;;;;23.36;71.44;99659.22;10098464;29;20497;-76
2022/06/24 05:46:40;;;;;;;2.10;1.50;;;;;;;24.01;68.34;99685.84;10095851;29;20601;-78
2022/06/24 05:51:41;;;;;;;1.65;1.02;;;;;;;23.49;66.24;99592.81;10095705;29;20131;-77
2022/06/24 05:56:41;;;;;;;4.30;1.85;;;;;;;23.98;66.04;99691.81;10091660;29;20044;-78
2022/06/24 06:01:42;;;;;;;3.33;1.33;;;;;;;23.87;66.14;99688.28;10096994;29;20490;-78
2022/06/24 06:06:43;;;;;;;1.42;0.70;;;;;;;24.14;64.51;99691.53;10096696;29;20061;-77
2022/06/24 06:11:44;;;;;;;4.00;1.13;;;;;;;23.64;63.88;99595.53;10095104;29;20049;-77
2022/06/24 06:16:47;;;;;;;8.30;1.42;;;;;;;23.82;65.14;99586.03;10096479;29;20044;-78
2022/06/24 06:21:47;;;;;;;3.07;0.93;;;;;;;24.67;63.76;99690.34;10096106;29;20097;-79
2022/06/24 06:26:49;;;;;;;1.80;0.80;;;;;;;24.51;61.35;99687.66;10094838;29;20189;-78
2022/06/24 06:31:53;;;;;;;3.13;1.00;;;;;;;24.51;61.04;99693.09;10094438;29;20079;-77
2022/06/24 06:36:54;;;;;;;2.70;0.98;;;;;;;23.58;58.16;99566.78;10092534;29;20048;-79
2022/06/24 06:41:55;;;;;;;5.65;1.00;;;;;;;24.19;57.78;99689.88;10094466;29;20064;-83
2022/06/24 07:02:26;;;;;;;3.03;0.85;;;;;;;23.97;54.18;99611.53;11010989;23;20065;-80
2022/06/24 07:07:27;;;;;;;24.63;2.60;;;;;;;24.86;55.04;99723.97;10134190;29;20056;-81
2022/06/24 07:12:28;;;;;;;1.48;0.80;;;;;;;24.88;53.87;99677.47;10134992;29;20568;-81
2022/06/24 07:17:29;;;;;;;20.20;1.02;;;;;;;25.20;53.09;99690.66;10135094;29;20401;-83
2022/06/24 07:22:30;;;;;;;4.35;0.80;;;;;;;25.16;53.15;99695.84;10117580;29;20044;-80
2022/06/24 07:27:30;;;;;;;3.25;0.63;;;;;;;25.28;50.44;99690.09;10133827;29;20130;-82
2022/06/24 07:32:31;;;;;;;1.35;0.60;;;;;;;24.95;49.13;99582.88;10133073;29;20051;-83
2022/06/24 07:37:32;;;;;;;4.63;1.05;;;;;;;25.94;50.17;99705.94;10147180;29;20516;-78
2022/06/24 07:42:35;;;;;;;2.55;0.85;;;;;;;25.83;49.52;99712.56;10133757;29;20043;-79
2022/06/24 07:47:36;;;;;;;5.33;0.90;;;;;;;25.66;49.29;99714.84;10133056;29;20054;-78
2022/06/24 07:52:37;;;;;;;4.63;0.70;;;;;;;24.60;49.83;99580.09;10133073;29;20052;-81
2022/06/24 07:57:38;;;;;;;2.65;0.70;;;;;;;24.36;49.28;99584.53;10133435;29;20062;-83
2022/06/24 08:02:39;;;;;;;1.98;0.60;;;;;;;24.95;49.14;99700.56;10109851;29;20390;-79
2022/06/24 08:07:40;;;;;;;19.55;1.85;;;;;;;25.77;49.31;99697.34;10094166;29;20041;-80
2022/06/24 08:12:41;;;;;;;3.97;0.80;;;;;;;25.71;48.92;99635.91;10094185;29;20045;-79
2022/06/24 08:17:42;;;;;;;3.97;0.90;;;;;;;26.11;47.76;99650.25;10096774;29;20075;-81
2022/06/24 08:22:42;;;;;;;4.00;1.10;;;;;;;26.29;48.19;99695.78;10101859;29;20084;-80
2022/06/24 08:27:43;;;;;;;1.88;0.70;;;;;;;26.17;47.59;99649.94;10090791;29;20394;-79
2022/06/24 08:32:44;;;;;;;4.55;1.02;;;;;;;26.57;47.69;99664.22;10101533;29;20049;-81
2022/06/24 08:37:45;;;;;;;24.63;2.38;;;;;;;26.74;48.36;99674.63;10101582;29;20048;-81
2022/06/24 08:42:51;;;;;;;9.32;0.82;;;;;;;27.07;46.59;99667.41;10101177;29;20493;-77
2022/06/24 08:47:53;;;;;;;7.22;1.13;;;;;;;26.39;47.85;99565.00;10085749;29;20046;-86
2022/06/24 08:52:54;;;;;;;4.38;0.88;;;;;;;26.74;46.89;99650.09;10062536;29;20082;-81
2022/06/24 08:57:55;;;;;;;4.88;0.80;;;;;;;26.91;45.82;99670.59;10061690;29;20048;-82
2022/06/24 09:02:56;;;;;;;2.40;0.70;;;;;;;26.40;45.54;99656.47;10078292;29;20064;-81
2022/06/24 09:08:17;;;;;;;4.25;0.80;;;;;;;26.33;46.07;99666.91;10092846;29;20049;-82
2022/06/24 09:13:21;;;;;;;10.38;2.15;;;;;;;26.37;46.56;99664.41;10061462;29;20069;-76
2022/06/24 09:18:25;;;;;;;5.55;1.13;;;;;;;26.52;47.44;99655.28;10059950;29;20077;-82
2022/06/24 09:23:26;;;;;;;7.65;1.30;;;;;;;26.68;46.66;99637.66;10061079;29;20052;-78
2022/06/24 09:28:31;;;;;;;5.25;1.00;;;;;;;26.81;45.45;99647.84;10102644;29;20052;-84
2022/06/24 09:33:41;;;;;;;3.60;0.68;;;;;;;26.47;45.52;99557.28;10137575;29;20048;-84
2022/06/24 09:38:55;;;;;;;2.80;0.75;;;;;;;27.31;45.20;99631.91;10106126;29;20045;-79
2022/06/24 09:44:01;;;;;;;2.78;0.85;;;;;;;27.14;44.10;99552.50;10095681;29;20467;-79
2022/06/24 09:49:04;;;;;;;5.85;0.98;;;;;;;27.37;44.66;99588.16;10099101;29;20147;-81
2022/06/24 09:54:06;;;;;;;1.52;0.60;;;;;;;27.71;43.49;99629.59;10086258;29;20104;-79
2022/06/24 10:04:28;;;;;;;5.95;1.58;;;;;;;27.64;43.12;99588.25;10098535;29;20084;-78
2022/06/24 10:09:32;;;;;;;7.28;1.23;;;;;;;27.25;42.79;99532.19;10098675;29;20041;-80
2022/06/24 10:14:33;;;;;;;5.78;0.77;;;;;;;27.16;43.90;99535.88;10093846;29;20465;-81
2022/06/24 10:19:34;;;;;;;3.78;0.90;;;;;;;27.42;44.46;99591.63;10097491;29;20080;-82
2022/06/24 10:24:40;;;;;;;2.63;0.90;;;;;;;27.80;43.57;99571.66;10097388;29;20048;-78
2022/06/24 10:29:41;;;;;;;7.03;1.02;;;;;;;28.11;43.03;99626.47;10092384;29;20049;-81
2022/06/24 10:34:43;;;;;;;2.15;1.08;;;;;;;28.01;42.08;99615.75;10059089;29;20390;-83
2022/06/24 10:39:48;;;;;;;5.22;1.20;;;;;;;27.82;42.13;99619.38;10058386;29;20047;-82
2022/06/24 10:44:55;;;;;;;16.48;1.65;;;;;;;27.98;42.92;99625.34;10059210;29;20045;-80
2022/06/24 10:50:06;;;;;;;7.03;1.30;;;;;;;27.99;42.40;99619.56;10058628;29;20045;-81
2022/06/24 10:55:20;;;;;;;8.57;1.33;;;;;;;28.01;42.81;99613.03;10058010;29;20405;-82
2022/06/24 11:00:28;;;;;;;8.27;0.98;;;;;;;28.10;42.34;99612.00;10065777;29;20504;-85
2022/06/24 11:05:34;;;;;;;12.23;1.27;;;;;;;27.79;43.47;99537.25;10096133;29;20049;-81
2022/06/24 11:10:35;;;;;;;14.40;1.48;;;;;;;28.33;42.61;99601.19;10111824;29;20052;-80
2022/06/24 11:15:38;;;;;;;13.98;1.60;;;;;;;28.61;42.84;99591.06;10100244;29;20059;-81
2022/06/24 11:20:42;;;;;;;8.27;1.10;;;;;;;28.56;41.73;99605.66;10077769;29;20065;-76
2022/06/24 11:25:52;;;;;;;1.50;1.00;;;;;;;28.22;41.08;99576.81;10095289;29;20052;-73
2022/06/24 11:30:54;;;;;;;2.05;0.90;;;;;;;28.13;41.91;99589.56;10094252;29;20044;-77
2022/06/24 11:36:02;;;;;;;6.45;1.40;;;;;;;28.67;40.35;99584.38;10095244;29;20048;-77
2022/06/24 11:41:02;;;;;;;6.68;1.13;;;;;;;28.42;40.61;99526.47;10084833;29;20140;-76
2022/06/24 11:46:09;;;;;;;2.80;1.00;;;;;;;28.27;41.81;99476.75;10088974;29;20486;-76
2022/06/24 11:51:20;;;;;;;2.92;1.05;;;;;;;28.42;40.47;99563.91;10101878;29;20041;-76
2022/06/24 11:56:21;;;;;;;2.83;0.88;;;;;;;27.89;41.57;99558.91;10129466;29;20560;-76
2022/06/24 12:01:23;;;;;;;2.35;1.10;;;;;;;27.99;40.92;99561.44;10120338;29;20060;-76
2022/06/24 12:06:25;;;;;;;5.65;0.90;;;;;;;28.45;40.87;99576.94;10118535;29;20143;-77
2022/06/24 12:11:26;;;;;;;3.90;1.02;;;;;;;28.26;40.90;99565.28;10113095;29;20037;-74
2022/06/24 12:16:29;;;;;;;3.20;0.80;;;;;;;27.87;41.96;99585.69;10115137;29;20049;-77
2022/06/24 12:21:30;;;;;;;4.30;1.13;;;;;;;27.39;43.03;99585.97;10117365;29;20080;-77
2022/06/24 12:26:31;;;;;;;2.10;0.90;;;;;;;27.14;42.36;99581.69;10115756;29;20522;-77
2022/06/24 12:31:34;;;;;;;3.30;1.00;;;;;;;26.93;42.29;99559.41;10115497;29;20041;-76
2022/06/24 12:36:35;;;;;;;;;;;;;;;27.57;41.49;99584.28;10116725;29;20045;-77
2022/06/24 12:41:47;;;;;;;5.68;1.23;;;;;;;27.18;42.43;99537.19;10118659;29;20303;-77
2022/06/24 12:52:10;;;;;;;3.05;0.95;;;;;;;27.23;41.66;99577.22;10116020;29;20045;-78
2022/06/24 12:57:11;;;;;;;1.65;0.80;;;;;;;26.75;42.10;99473.84;10102554;29;20053;-77
2022/06/24 13:02:11;;;;;;;4.43;1.05;;;;;;;27.41;41.77;99559.19;10090431;29;20068;-77
2022/06/24 13:07:12;;;;;;;2.28;1.00;;;;;;;27.09;40.73;99460.72;10100722;29;20092;-77
2022/06/24 13:12:14;;;;;;;6.38;1.00;;;;;;;27.18;40.35;99501.75;10099102;29;20049;-78
2022/06/24 13:17:14;;;;;;;3.03;0.98;;;;;;;27.66;40.89;99566.13;10099025;29;20044;-77
2022/06/24 13:22:15;;;;;;;1.80;0.80;;;;;;;27.94;40.35;99567.81;10098731;29;20052;-78
2022/06/24 13:27:18;;;;;;;4.05;1.10;;;;;;;28.16;40.47;99556.19;10098396;29;20055;-78
2022/06/24 13:32:18;;;;;;;5.73;0.93;;;;;;;28.40;39.61;99585.19;10097635;29;20521;-78
2022/06/24 13:37:19;;;;;;;4.05;1.20;;;;;;;28.21;39.74;99582.59;10098185;29;20116;-77
2022/06/24 13:42:21;;;;;;;4.32;1.00;;;;;;;28.19;40.37;99563.78;10103406;29;20072;-77
2022/06/24 13:47:22;;;;;;;2.55;1.15;;;;;;;28.36;40.17;99576.81;10096978;29;20055;-71
2022/06/24 13:52:22;;;;;;;17.48;1.52;;;;;;;27.88;40.25;99544.47;10098484;29;20044;-71
2022/06/24 13:57:24;;;;;;;13.40;1.70;;;;;;;27.60;41.24;99559.13;10098099;29;20104;-70
2022/06/24 14:02:25;;;;;;;7.85;2.00;;;;;;;26.62;41.87;99453.56;10091272;29;20085;-71
2022/06/24 14:07:25;;;;;;;6.50;1.35;;;;;;;27.43;40.81;99579.63;10086662;29;20502;-71
2022/06/24 14:12:26;;;;;;;3.40;1.23;;;;;;;26.54;41.77;99457.00;10097142;29;20105;-71
2022/06/24 14:17:27;;;;;;;2.65;1.10;;;;;;;27.11;41.88;99564.03;10097640;29;20037;-71
2022/06/24 14:22:28;;;;;;;9.75;1.65;;;;;;;26.82;42.23;99573.16;10100983;29;20041;-70
2022/06/24 14:27:30;;;;;;;3.40;0.88;;;;;;;26.77;41.83;99573.22;10136441;29;20045;-71
2022/06/24 14:32:30;;;;;;;4.15;1.27;;;;;;;26.01;42.58;99474.28;10135272;29;20561;-71
2022/06/24 14:42:51;;;;;;;1.80;0.80;;;;;;;26.90;41.70;99557.25;10135054;29;20533;-72
2022/06/24 14:47:52;;;;;;;17.92;1.85;;;;;;;26.03;42.31;99476.72;10092840;29;20140;-70
2022/06/24 14:52:52;;;;;;;7.50;1.33;;;;;;;26.96;41.56;99596.97;10089258;29;20047;-70
2022/06/24 14:57:54;;;;;;;5.10;1.05;;;;;;;27.17;40.95;99587.41;10091085;29;20509;-70
2022/06/24 15:02:56;;;;;;;14.80;1.50;;;;;;;27.45;40.59;99591.03;10087666;29;21702;-70
2022/06/24 15:07:57;;;;;;;4.53;1.27;;;;;;;26.20;40.72;99417.13;10088516;29;20088;-69
2022/06/24 15:12:58;;;;;;;6.15;1.33;;;;;;;26.93;41.21;99562.13;10091603;29;20089;-70
2022/06/24 15:17:58;;;;;;;9.35;1.30;;;;;;;26.10;41.42;99469.81;10089749;29;20458;-69
2022/06/24 15:22:59;;;;;;;9.15;1.40;;;;;;;26.65;41.97;99608.25;10089191;29;20060;-70
2022/06/24 15:28:00;;;;;;;7.45;1.40;;;;;;;26.24;42.23;99578.81;10089407;29;20451;-70
2022/06/24 15:33:01;;;;;;;3.63;1.10;;;;;;;25.43;43.14;99493.41;10089958;29;20049;-71
2022/06/24 15:38:02;;;;;;;3.40;0.98;;;;;;;26.03;42.52;99599.19;10090013;29;20033;-70
2022/06/24 15:43:03;;;;;;;3.13;0.80;;;;;;;25.76;42.72;99577.91;10089820;29;20128;-70
2022/06/24 15:48:04;;;;;;;22.55;1.50;;;;;;;25.24;43.10;99493.28;10082414;29;20053;-70
2022/06/24 15:53:05;;;;;;;8.02;1.33;;;;;;;25.91;43.58;99597.66;10090538;29;20044;-70
2022/06/24 15:58:06;;;;;;;9.57;2.10;;;;;;;25.94;43.80;99610.69;10087069;29;20052;-70
2022/06/24 16:03:07;;;;;;;16.00;2.83;;;;;;;25.91;45.26;99616.72;10100603;29;20056;-70
2022/06/24 16:08:07;;;;;;;50.35;6.13;;;;;;;25.92;47.32;99596.56;10133226;29;20409;-70
2022/06/24 16:13:08;;;;;;;34.83;3.97;;;;;;;25.84;48.19;99607.25;10133433;29;20556;-71
2022/06/24 16:18:09;;;;;;;8.20;2.88;;;;;;;25.69;49.12;99621.78;10132741;29;20520;-71
2022/06/24 16:23:10;;;;;;;5.18;2.03;;;;;;;25.42;50.31;99623.09;10101768;29;20041;-70
2022/06/24 16:33:30;;;;;;;48.92;16.77;;;;;;;24.95;53.24;99623.63;10055994;29;20110;-70
2022/06/24 16:38:32;;;;;;;35.22;12.68;;;;;;;24.44;56.17;99584.00;10062776;29;20113;-71
2022/06/24 16:43:33;;;;;;;36.35;14.13;;;;;;;24.49;57.03;99621.97;10100484;29;20057;-72
2022/06/24 16:48:36;;;;;;;48.35;20.95;;;;;;;22.99;57.57;99416.44;10090667;29;20049;-72
2022/06/24 16:53:38;;;;;;;50.38;19.33;;;;;;;24.02;58.05;99604.19;10085851;29;20410;-71
2022/06/24 16:58:41;;;;;;;40.80;13.10;;;;;;;24.08;59.56;99629.38;10100305;29;20040;-71
2022/06/24 17:03:41;;;;;;;53.80;18.95;;;;;;;23.87;58.79;99623.19;10099029;29;20497;-72
2022/06/24 17:08:42;;;;;;;45.08;19.63;;;;;;;23.66;58.90;99625.91;10113062;29;20064;-72
2022/06/24 17:13:43;;;;;;;41.30;16.73;;;;;;;23.65;59.99;99639.72;10089893;29;20041;-74
2022/06/24 17:18:44;;;;;;;56.70;19.80;;;;;;;23.59;61.83;99647.03;10093350;29;20064;-72
2022/06/24 17:23:45;;;;;;;28.27;12.05;;;;;;;23.53;59.94;99644.59;10090598;29;20093;-71
2022/06/24 17:28:47;;;;;;;33.92;11.40;;;;;;;22.20;60.32;99442.06;10089276;29;20196;-71
2022/06/24 17:33:49;;;;;;;16.15;8.32;;;;;;;23.25;60.16;99614.22;10090065;29;20560;-71
2022/06/24 17:38:50;;;;;;;15.63;8.50;;;;;;;23.30;60.88;99641.31;10094687;29;20048;-71
2022/06/24 17:43:51;;;;;;;28.45;8.63;;;;;;;23.44;59.81;99676.84;10094903;29;20056;-71
2022/06/24 17:48:52;;;;;;;15.65;8.50;;;;;;;23.44;60.92;99674.13;10091334;29;20056;-71
2022/06/24 17:53:53;;;;;;;27.13;7.32;;;;;;;22.53;60.04;99532.00;10093806;29;20048;-72
2022/06/24 17:58:53;;;;;;;20.98;6.30;;;;;;;23.27;59.53;99646.47;10114396;29;20422;-71
2022/06/24 18:03:54;;;;;;;16.90;5.50;;;;;;;23.08;59.70;99609.03;10100622;29;20454;-71
2022/06/24 18:08:55;;;;;;;17.65;5.40;;;;;;;23.40;59.22;99664.94;10092863;29;20048;-71
2022/06/24 18:13:56;;;;;;;10.13;3.70;;;;;;;23.38;59.35;99657.03;10092703;29;20044;-71
2022/06/24 18:18:59;;;;;;;10.55;3.22;;;;;;;23.35;60.19;99662.19;10088956;29;20045;-71
2022/06/24 18:24:00;;;;;;;8.50;2.95;;;;;;;23.06;59.35;99616.63;10092943;29;20040;-71
2022/06/24 18:29:01;;;;;;;23.30;3.80;;;;;;;23.27;58.94;99643.75;10093041;29;20477;-71
2022/06/24 18:34:02;;;;;;;30.50;5.78;;;;;;;23.18;59.34;99643.47;10091498;29;20123;-71
2022/06/24 18:39:04;;;;;;;14.70;3.40;;;;;;;23.25;59.98;99657.59;10091721;29;20045;-71
2022/06/24 18:44:05;;;;;;;11.30;3.10;;;;;;;22.57;59.33;99554.75;10089456;29;20041;-71
2022/06/24 18:49:06;;;;;;;15.63;3.50;;;;;;;23.20;59.18;99650.25;10091373;29;20048;-71
2022/06/24 18:54:08;;;;;;;12.20;3.28;;;;;;;22.51;58.96;99550.41;10092049;29;20124;-71
2022/06/24 18:59:11;;;;;;;8.73;2.60;;;;;;;23.13;59.14;99655.13;10091085;29;20068;-71
2022/06/24 19:04:12;;;;;;;;;;;;;;;23.26;58.77;99669.22;10088910;29;20064;-71
2022/06/24 19:09:13;;;;;;;6.63;3.13;;;;;;;22.84;59.61;99634.97;10091271;29;20402;-72
2022/06/24 19:14:14;;;;;;;6.63;3.35;;;;;;;22.32;59.64;99545.47;10089287;29;20047;-73
2022/06/24 19:19:15;;;;;;;8.75;3.05;;;;;;;22.40;59.48;99552.25;10090476;29;20045;-71
2022/06/24 19:24:16;;;;;;;4.50;2.53;;;;;;;23.00;59.53;99656.44;10090375;29;20037;-71
2022/06/24 19:29:17;;;;;;;6.07;2.30;;;;;;;22.71;59.76;99614.63;10090102;29;20527;-71
2022/06/24 19:34:18;;;;;;;5.97;2.17;;;;;;;22.99;59.24;99643.97;10090927;29;20121;-71
2022/06/24 19:39:19;;;;;;;6.97;2.22;;;;;;;22.22;59.81;99544.59;10091134;29;20048;-72
2022/06/24 19:44:20;;;;;;;4.78;1.88;;;;;;;22.85;60.13;99636.59;10086459;29;20470;-72
2022/06/24 19:49:21;;;;;;;6.03;2.15;;;;;;;22.23;60.02;99541.66;10078344;29;20052;-71
2022/06/24 19:54:22;;;;;;;3.53;2.15;;;;;;;22.68;60.02;99610.56;10089378;29;20037;-71
2022/06/24 19:59:23;;;;;;;3.55;2.33;;;;;;;23.00;59.99;99652.91;10115403;29;20416;-72
2022/06/24 20:09:43;;;;;;;8.48;2.45;;;;;;;22.92;60.81;99648.81;10068914;29;20540;-72
2022/06/24 20:14:44;;;;;;;4.00;2.00;;;;;;;22.05;62.23;99544.78;10061988;29;20181;-71
2022/06/24 20:19:45;;;;;;;5.32;2.03;;;;;;;22.70;61.21;99653.59;10064253;29;20060;-71
2022/06/24 20:24:46;;;;;;;4.78;2.10;;;;;;;22.72;61.40;99663.06;10063621;29;20038;-71
2022/06/24 20:29:48;;;;;;;5.32;2.10;;;;;;;22.74;61.00;99666.34;10062715;29;20056;-72
2022/06/24 20:34:49;;;;;;;4.47;1.50;;;;;;;22.64;60.44;99650.03;10062680;29;20037;-72
2022/06/24 20:39:49;;;;;;;3.47;1.63;;;;;;;22.79;59.80;99674.50;10062444;29;20056;-71
2022/06/24 20:44:50;;;;;;;5.53;1.52;;;;;;;22.79;59.15;99631.16;10062865;29;20045;-70
2022/06/24 20:49:51;;;;;;;2.95;1.27;;;;;;;22.02;59.13;99515.56;10062621;29;20084;-72
2022/06/24 20:54:52;;;;;;;3.42;1.50;;;;;;;22.78;59.38;99632.22;10062454;29;20502;-71
2022/06/24 20:59:53;;;;;;;4.63;1.55;;;;;;;22.55;59.42;99595.63;10061443;29;20041;-71
2022/06/24 21:04:53;;;;;;;6.65;1.60;;;;;;;22.70;60.27;99638.16;10061591;29;20045;-71
2022/06/24 21:09:54;;;;;;;5.97;1.90;;;;;;;22.54;60.40;99620.22;10062186;29;20054;-71
2022/06/24 21:14:55;;;;;;;8.75;1.88;;;;;;;22.68;60.67;99653.06;10076090;29;20049;-71
2022/06/24 21:19:56;;;;;;;3.92;1.65;;;;;;;22.49;60.91;99639.16;10061465;29;20037;-72
2022/06/24 21:24:58;;;;;;;6.40;1.77;;;;;;;22.62;61.07;99651.41;10061313;29;20045;-71
2022/06/24 21:29:59;;;;;;;3.60;1.90;;;;;;;22.40;61.24;99628.00;10060917;29;20137;-71
2022/06/24 21:34:59;;;;;;;7.38;2.22;;;;;;;21.92;61.51;99558.75;10060970;29;20134;-71
2022/06/24 21:40:01;;;;;;;4.97;2.08;;;;;;;22.54;61.66;99674.38;10060999;29;20045;-71
2022/06/24 21:45:02;;;;;;;5.35;1.90;;;;;;;22.28;62.00;99628.22;10059537;29;20041;-72
2022/06/24 21:50:04;;;;;;;7.03;2.03;;;;;;;22.46;62.61;99662.13;10060272;29;20049;-72
2022/06/24 21:55:05;;;;;;;5.65;1.90;;;;;;;22.53;61.41;99661.91;10079872;29;20413;-71
2022/06/24 22:00:09;;;;;;;4.18;2.08;;;;;;;21.63;61.65;99519.41;10078256;29;20421;-72
2022/06/24 22:05:10;;;;;;;5.68;2.30;;;;;;;21.87;62.60;99556.84;10097950;29;20661;-72
2022/06/24 22:10:11;;;;;;;4.32;2.20;;;;;;;22.28;64.39;99639.03;10080122;29;20067;-71
2022/06/24 22:15:12;;;;;;;4.60;2.08;;;;;;;22.36;64.97;99664.81;10059135;29;20057;-71
2022/06/24 22:20:14;;;;;;;5.32;2.25;;;;;;;21.65;65.69;99575.88;10058790;29;20044;-72
2022/06/24 22:25:15;;;;;;;2.55;1.70;;;;;;;22.09;66.35;99656.75;10058689;29;20128;-72
2022/06/24 22:30:16;;;;;;;8.00;2.30;;;;;;;22.10;67.10;99666.50;10059029;29;20447;-71
2022/06/24 22:35:17;;;;;;;5.57;2.30;;;;;;;21.78;68.48;99644.94;10058970;29;20042;-72
2022/06/24 22:40:18;;;;;;;5.70;2.20;;;;;;;21.96;69.58;99679.66;10058610;29;20048;-72
2022/06/24 22:45:19;;;;;;;4.57;2.20;;;;;;;21.79;70.61;99679.00;10057955;29;20048;-71
2022/06/24 22:50:20;;;;;;;4.47;2.13;;;;;;;21.64;72.49;99688.59;10058301;29;20387;-72
2022/06/24 22:55:21;;;;;;;4.53;2.80;;;;;;;21.30;74.03;99646.63;10057964;29;20042;-70
2022/06/24 23:00:22;;;;;;;9.27;4.05;;;;;;;21.33;74.52;99697.44;10057664;29;20141;-69
2022/06/24 23:05:22;;;;;;;5.68;4.20;;;;;;;20.35;75.73;99581.31;10057880;29;20052;-69
2022/06/24 23:10:24;;;;;;;11.52;4.22;;;;;;;20.10;77.48;99565.59;10071704;29;20076;-70
2022/06/24 23:15:25;;;;;;;5.88;4.05;;;;;;;20.25;78.69;99617.88;10071299;29;20041;-70
2022/06/24 23:20:27;;;;;;;5.85;3.72;;;;;;;19.61;80.21;99531.22;10057869;29;20053;-70
2022/06/24 23:25:27;;;;;;;7.45;3.58;;;;;;;20.10;81.46;99608.75;10056674;29;20048;-70
2022/06/24 23:30:31;;;;;;;5.97;3.50;;;;;;;20.02;82.22;99574.97;10057020;29;20045;-72
2022/06/24 23:35:32;;;;;;;6.80;3.10;;;;;;;20.02;82.27;99567.69;10056689;29;20074;-70
2022/06/24 23:40:33;;;;;;;5.07;3.72;;;;;;;19.78;82.63;99580.53;10057285;29;20375;-70
2022/06/24 23:45:35;;;;;;;4.47;3.10;;;;;;;19.64;82.14;99552.28;10056234;29;20045;-71
2022/06/24 23:55:55;;;;;;;5.63;3.10;;;;;;;19.76;82.12;99606.91;10064162;29;20455;-71
